createdAt,value
2018-05-09T00:03:29.750Z,17.30
2018-05-09T00:08:32.579Z,17.30
2018-05-09T00:13:36.484Z,17.20
2018-05-09T00:18:39.386Z,17.10
2018-05-09T00:23:42.304Z,17.10
2018-05-09T00:28:45.331Z,17.00
2018-05-09T00:33:48.265Z,16.90
2018-05-09T00:38:51.153Z,16.80
2018-05-09T00:43:54.512Z,16.80
2018-05-09T00:48:57.353Z,16.70
2018-05-09T00:54:11.799Z,16.60
2018-05-09T00:59:16.499Z,16.50
2018-05-09T01:04:19.530Z,16.40
2018-05-09T01:09:22.385Z,16.30
2018-05-09T01:14:26.283Z,16.30
2018-05-09T01:19:28.869Z,16.20
2018-05-09T01:24:32.446Z,16.20
2018-05-09T01:29:35.081Z,16.10
2018-05-09T01:34:38.743Z,16.00
2018-05-09T01:39:41.457Z,15.90
2018-05-09T01:44:44.065Z,15.80
2018-05-09T01:49:47.011Z,15.80
2018-05-09T01:54:49.864Z,15.70
2018-05-09T01:59:52.360Z,15.70
2018-05-09T02:04:55.305Z,15.60
2018-05-09T02:09:57.974Z,15.60
2018-05-09T02:15:01.675Z,15.50
2018-05-09T02:20:04.276Z,15.50
2018-05-09T02:25:08.681Z,15.40
2018-05-09T02:30:11.269Z,15.40
2018-05-09T02:35:13.881Z,15.40
2018-05-09T02:40:16.494Z,15.30
2018-05-09T02:45:19.232Z,15.30
2018-05-09T02:50:22.039Z,15.30
2018-05-09T02:55:24.668Z,15.20
2018-05-09T03:00:29.313Z,15.10
2018-05-09T03:05:31.937Z,15.10
2018-05-09T03:10:34.660Z,15.10
2018-05-09T03:15:37.651Z,15.00
2018-05-09T03:20:40.748Z,14.90
2018-05-09T03:25:43.654Z,14.90
2018-05-09T03:30:48.633Z,14.90
2018-05-09T03:35:52.712Z,14.80
2018-05-09T03:40:55.470Z,14.80
2018-05-09T03:45:58.296Z,14.70
2018-05-09T03:51:02.497Z,14.70
2018-05-09T03:56:06.096Z,14.60
2018-05-09T04:01:08.719Z,14.60
2018-05-09T04:06:24.531Z,14.60
2018-05-09T04:11:27.313Z,14.50
2018-05-09T04:16:30.056Z,14.50
2018-05-09T04:21:33.030Z,14.50
2018-05-09T04:26:36.470Z,14.40
2018-05-09T04:31:39.260Z,14.40
2018-05-09T04:36:42.123Z,14.40
2018-05-09T04:41:47.022Z,14.40
2018-05-09T04:46:49.820Z,14.50
2018-05-09T04:51:52.526Z,14.50
2018-05-09T04:56:55.492Z,14.50
2018-05-09T05:01:58.514Z,14.60
2018-05-09T05:07:01.609Z,14.70
2018-05-09T05:12:05.174Z,14.80
2018-05-09T05:17:09.107Z,14.90
2018-05-09T05:22:12.477Z,15.00
2018-05-09T05:27:18.656Z,15.30
2018-05-09T05:32:22.872Z,15.30
2018-05-09T05:37:26.371Z,15.60
2018-05-09T05:42:31.460Z,15.90
2018-05-09T05:47:35.160Z,16.40
2018-05-09T05:52:49.883Z,16.40
2018-05-09T06:03:06.593Z,17.10
2018-05-09T06:08:10.276Z,17.50
2018-05-09T06:13:12.868Z,17.90
2018-05-09T06:18:20.667Z,18.60
2018-05-09T06:23:25.879Z,18.60
2018-05-09T06:28:30.405Z,18.90
2018-05-09T06:33:36.939Z,19.20
2018-05-09T06:38:43.560Z,19.50
2018-05-09T06:43:47.044Z,19.90
2018-05-09T06:48:50.452Z,20.60
2018-05-09T06:53:54.847Z,20.50
2018-05-09T06:58:59.438Z,20.80
2018-05-09T07:04:02.640Z,21.10
2018-05-09T07:09:12.354Z,21.40
2018-05-09T07:14:22.505Z,21.80
2018-05-09T07:19:42.347Z,22.10
2018-05-09T07:24:45.818Z,22.40
2018-05-09T07:29:50.052Z,22.70
2018-05-09T07:34:58.613Z,23.00
2018-05-09T07:40:04.990Z,23.20
2018-05-09T07:45:09.937Z,23.50
2018-05-09T07:50:13.853Z,23.70
2018-05-09T07:55:18.531Z,24.00
2018-05-09T08:00:22.126Z,24.10
2018-05-09T08:05:30.847Z,24.30
2018-05-09T08:10:39.630Z,24.60
2018-05-09T08:15:46.295Z,24.80
2018-05-09T08:20:51.088Z,25.00
2018-05-09T08:25:56.267Z,25.30
2018-05-09T08:31:07.509Z,25.50
2018-05-09T08:36:17.178Z,25.70
2018-05-09T08:41:27.743Z,25.80
2018-05-09T08:51:54.582Z,26.20
2018-05-09T09:02:36.743Z,26.60
2018-05-09T09:07:54.924Z,26.80
2018-05-09T09:18:19.611Z,27.20
2018-05-09T09:23:27.259Z,27.60
2018-05-09T09:28:35.556Z,27.50
2018-05-09T09:33:54.824Z,27.70
2018-05-09T09:44:47.036Z,28.00
2018-05-09T10:32:48.396Z,28.80
2018-05-09T10:43:31.922Z,28.90
2018-05-09T10:48:48.502Z,29.10
2018-05-09T10:59:21.994Z,29.20
2018-05-09T11:04:32.539Z,29.20
2018-05-09T11:09:55.146Z,29.30
2018-05-09T11:15:02.474Z,29.30
2018-05-09T11:20:20.645Z,29.40
2018-05-09T11:32:53.775Z,29.40
2018-05-09T11:37:59.570Z,29.30
2018-05-09T11:48:41.674Z,29.10
2018-05-09T11:53:53.168Z,29.00
2018-05-09T12:09:39.755Z,28.40
2018-05-09T12:15:29.578Z,28.30
2018-05-09T13:20:07.618Z,28.00
2018-05-09T13:47:29.957Z,27.20
2018-05-09T13:52:42.601Z,27.20
2018-05-09T13:57:49.621Z,27.10
2018-05-09T14:08:33.979Z,26.80
2018-05-09T14:13:48.475Z,26.80
2018-05-09T14:18:51.475Z,26.70
2018-05-09T14:23:56.521Z,26.60
2018-05-09T14:29:00.794Z,26.50
2018-05-09T14:40:24.757Z,26.60
2018-05-09T14:45:33.200Z,26.70
2018-05-09T15:01:46.699Z,26.70
2018-05-09T15:12:34.359Z,26.50
2018-05-09T15:17:39.633Z,26.40
2018-05-09T15:28:05.619Z,26.20
2018-05-09T15:33:14.127Z,26.00
2018-05-09T15:38:19.446Z,25.90
2018-05-09T15:43:21.989Z,25.80
2018-05-09T15:48:33.049Z,25.80
2018-05-09T15:53:41.101Z,25.60
2018-05-09T15:58:49.403Z,25.50
2018-05-09T16:03:51.977Z,25.50
2018-05-09T16:09:05.199Z,25.40
2018-05-09T16:14:19.510Z,25.30
2018-05-09T16:25:02.069Z,25.30
2018-05-09T16:30:11.626Z,25.30
2018-05-09T16:35:24.443Z,25.30
2018-05-09T16:40:28.342Z,25.30
2018-05-09T16:45:31.427Z,25.30
2018-05-09T16:50:34.121Z,25.30
2018-05-09T16:55:42.927Z,25.20
2018-05-09T17:00:46.451Z,25.20
2018-05-09T17:05:49.455Z,25.10
2018-05-09T17:10:54.094Z,25.00
2018-05-09T17:15:56.798Z,24.90
2018-05-09T17:20:59.361Z,24.80
2018-05-09T17:26:02.687Z,24.70
2018-05-09T17:31:06.152Z,24.60
2018-05-09T17:36:09.502Z,24.60
2018-05-09T17:41:15.634Z,24.40
2018-05-09T17:46:18.321Z,24.30
2018-05-09T19:11:48.480Z,22.00
2018-05-09T19:16:58.055Z,21.90
2018-05-09T19:22:10.619Z,21.80
2018-05-09T19:27:20.432Z,21.70
2018-05-09T19:32:31.569Z,21.60
2018-05-09T19:37:43.081Z,21.40
2018-05-09T19:42:51.695Z,21.40
2018-05-09T19:47:59.008Z,21.30
2018-05-09T19:53:06.026Z,21.20
2018-05-09T19:58:18.243Z,21.10
2018-05-09T20:03:26.981Z,21.10
2018-05-09T20:08:35.850Z,21.00
2018-05-09T20:13:43.685Z,20.90
2018-05-09T20:18:49.035Z,20.80
2018-05-09T20:24:04.810Z,20.70
2018-05-09T20:29:19.636Z,20.70
2018-05-09T20:34:30.112Z,20.60
2018-05-09T20:39:35.909Z,20.50
2018-05-09T20:44:44.196Z,20.40
2018-05-09T20:49:53.769Z,20.40
2018-05-09T20:55:00.108Z,20.30
2018-05-09T21:05:26.317Z,20.20
2018-05-09T21:10:36.403Z,20.10
2018-05-09T21:15:53.302Z,20.00
2018-05-09T21:21:05.984Z,20.00
2018-05-09T21:26:18.023Z,19.90
2018-05-09T21:31:28.170Z,19.80
2018-05-09T21:36:33.827Z,19.70
2018-05-09T21:41:39.283Z,19.60
2018-05-09T21:46:44.681Z,19.50
2018-05-09T21:51:52.414Z,19.40
2018-05-09T21:56:58.847Z,19.40
2018-05-09T22:02:16.071Z,19.30
2018-05-09T22:07:22.918Z,19.20
2018-05-09T22:12:29.798Z,19.10
2018-05-09T22:22:46.116Z,19.00
2018-05-09T22:27:59.169Z,18.90
2018-05-09T22:33:06.376Z,18.70
2018-05-09T22:38:14.331Z,18.60
2018-05-09T22:43:27.268Z,18.60
2018-05-09T22:48:33.735Z,18.40
2018-05-09T22:53:39.243Z,18.40
2018-05-09T22:58:45.055Z,18.20
2018-05-09T23:03:53.533Z,18.10
2018-05-09T23:08:57.463Z,18.00
2018-05-09T23:14:03.138Z,17.90
2018-05-09T23:24:25.604Z,17.60
2018-05-09T23:29:30.785Z,17.50
2018-05-09T23:34:40.755Z,17.40
2018-05-09T23:39:51.255Z,17.30
2018-05-09T23:50:12.296Z,17.10
